KGRB/GRB METAR and TAF weather

Enter ICAO airport designator
Station Type Date Time Source
KGRB METAR 2022/12/04 11:53 UTC NOAA

KGRB 041153Z 22008KT 10SM CLR M07/M12 A3012 RMK AO2 SLP212 T10671122 11067 21089 56020


Station Type Date Time Source
KGRB Decoded METAR 2022/12/04 11:53 UTC NOAA

AUSTIN STRAUBEL INTERNATIONAL AIRPORT , WI, United States (KGRB) 44-29N 088-08W 205M
Dec 04, 2022 - 06:53 AM EST / 2022.12.04 1153 UTC
Wind: from the SW (220 degrees) at 9 MPH (8 KT):0
Visibility: 10 mile(s):0
Sky conditions: clear
Temperature: 19.9 F (-6.7 C)
Windchill: 8 F (-13 C):1
Dew Point: 10.0 F (-12.2 C)
Relative Humidity: 64%
Pressure (altimeter): 30.12 in. Hg (1019 hPa)
Pressure tendency: 0.06 inches (2.0 hPa) lower than three hours ago
ob: KGRB 041153Z 22008KT 10SM CLR M07/M12 A3012 RMK AO2 SLP212 T10671122 11067 21089 56020
cycle: 12

Station Type Date Time Source
KGRB TAF 2022/12/04 12:22 UTC NOAA

TAF KGRB 041120Z 0412/0512 22007KT P6SM SCT120
FM041600 24010G17KT P6SM SCT120
FM050000 23012G21KT P6SM SCT120 WS020/26045KT
FM050800 23008G16KT P6SM SCT200 WS020/27040KT
FM051000 22007KT P6SM BKN200

Example: see airport list